Time;durP1;ratioP1;P1;durP2;ratioP2;P2;SDS_P1;SDS_P2;PMS_P1;PMS_P2;Temp;Humidity;BMP_temperature;BMP_pressure;BME280_temperature;BME280_humidity;BME280_pressure;Samples;Min_cycle;Max_cycle;Signal;HPM_P1;HPM_P2
2022/04/20 00:00:35;;;;;;;3.92;2.40;;;19.00;49.50;;;;;;4890458;28;99230;-69
2022/04/20 00:03:04;;;;;;;3.45;2.55;;;19.00;49.50;;;;;;4891554;28;98952;-69
2022/04/20 00:05:33;;;;;;;3.78;2.63;;;19.00;49.50;;;;;;4890178;28;101106;-69
2022/04/20 00:08:00;;;;;;;2.97;2.25;;;19.00;49.50;;;;;;4890393;28;100016;-69
2022/04/20 00:10:26;;;;;;;2.38;2.17;;;19.00;49.50;;;;;;4890829;28;98633;-69
2022/04/20 00:12:51;;;;;;;2.90;2.00;;;19.00;49.50;;;;;;4891065;28;98620;-69
2022/04/20 00:15:17;;;;;;;3.00;2.38;;;19.00;49.50;;;;;;4889580;28;108594;-69
2022/04/20 00:17:44;;;;;;;2.95;2.40;;;19.00;49.60;;;;;;4890838;28;100126;-69
2022/04/20 00:20:09;;;;;;;3.88;2.67;;;19.00;49.60;;;;;;4890132;28;99029;-69
2022/04/20 00:22:35;;;;;;;3.42;2.42;;;19.00;49.50;;;;;;4890043;28;99096;-69
2022/04/20 00:25:01;;;;;;;3.22;2.25;;;19.00;49.50;;;;;;4889302;28;100950;-69
2022/04/20 00:27:26;;;;;;;4.22;2.50;;;19.00;49.50;;;;;;4889389;28;100930;-69
2022/04/20 00:29:52;;;;;;;3.83;2.47;;;19.00;49.50;;;;;;4889970;28;99101;-69
2022/04/20 00:32:17;;;;;;;3.50;2.30;;;19.00;49.40;;;;;;4890324;28;98865;-69
2022/04/20 00:34:43;;;;;;;4.30;2.50;;;19.00;49.50;;;;;;4889531;28;102545;-69
2022/04/20 00:37:09;;;;;;;3.13;2.20;;;19.00;49.60;;;;;;4890113;28;101497;-69
2022/04/20 00:39:36;;;;;;;2.97;2.30;;;19.00;49.50;;;;;;4890877;28;99083;-69
2022/04/20 00:42:04;;;;;;;2.85;2.35;;;19.00;49.40;;;;;;4890579;28;97873;-69
2022/04/20 00:44:29;;;;;;;2.95;2.33;;;19.00;49.40;;;;;;4889859;28;100936;-69
2022/04/20 00:46:56;;;;;;;3.33;2.40;;;18.90;49.30;;;;;;4889744;28;99315;-69
2022/04/20 00:49:23;;;;;;;3.47;2.30;;;18.90;49.30;;;;;;4890694;28;99322;-69
2022/04/20 00:51:57;;;;;;;2.50;2.30;;;18.90;49.30;;;;;;4890867;28;100342;-69
2022/04/20 00:54:24;;;;;;;2.72;2.10;;;19.00;49.30;;;;;;4890287;28;100530;-69
2022/04/20 00:56:50;;;;;;;2.80;2.38;;;18.90;49.30;;;;;;4889545;28;99803;-69
2022/04/20 00:59:20;;;;;;;2.75;2.05;;;18.90;49.20;;;;;;4890093;28;98535;-70
2022/04/20 01:01:46;;;;;;;2.85;2.33;;;18.90;49.20;;;;;;4889190;28;99235;-69
2022/04/20 01:04:11;;;;;;;2.95;2.60;;;18.90;49.30;;;;;;4889231;28;100097;-69
2022/04/20 01:06:37;;;;;;;2.90;2.35;;;18.90;49.20;;;;;;4889526;28;99842;-68
2022/04/20 01:09:03;;;;;;;3.55;2.20;;;18.90;49.20;;;;;;4890506;28;98991;-68
2022/04/20 01:11:29;;;;;;;3.25;2.40;;;18.90;49.10;;;;;;4890380;28;98515;-69
2022/04/20 01:13:56;;;;;;;2.95;2.25;;;18.90;49.10;;;;;;4889758;28;101477;-69
2022/04/20 01:16:22;;;;;;;3.20;2.42;;;18.90;49.10;;;;;;4889904;28;99332;-69
2022/04/20 01:18:49;;;;;;;3.03;2.47;;;18.90;49.10;;;;;;4889907;28;98611;-69
2022/04/20 01:21:16;;;;;;;3.42;2.20;;;18.90;49.20;;;;;;4889419;28;98839;-69
2022/04/20 01:23:42;;;;;;;2.65;2.20;;;18.90;49.10;;;;;;4889639;28;100434;-69
2022/04/20 01:26:09;;;;;;;2.78;2.25;;;18.80;49.10;;;;;;4890026;28;100492;-69
2022/04/20 01:28:36;;;;;;;2.90;1.98;;;18.80;49.00;;;;;;4890837;28;98815;-69
2022/04/20 01:31:03;;;;;;;3.13;2.35;;;18.80;49.00;;;;;;4890303;28;99018;-69
2022/04/20 01:33:29;;;;;;;2.30;2.10;;;18.80;49.00;;;;;;4890109;28;100336;-69
2022/04/20 01:35:55;;;;;;;3.97;2.00;;;18.80;49.00;;;;;;4889282;28;99057;-69
2022/04/20 01:38:20;;;;;;;2.28;1.75;;;18.80;48.90;;;;;;4889937;28;99418;-69
2022/04/20 01:40:46;;;;;;;1.92;1.80;;;18.80;48.90;;;;;;4889371;28;98691;-69
2022/04/20 01:43:11;;;;;;;2.50;2.30;;;18.80;49.00;;;;;;4889335;28;99255;-69
2022/04/20 01:45:37;;;;;;;2.65;2.08;;;18.80;48.80;;;;;;4889904;28;99494;-69
2022/04/20 01:48:03;;;;;;;2.85;2.20;;;18.80;48.80;;;;;;4890520;28;99121;-69
2022/04/20 01:50:29;;;;;;;3.10;2.28;;;18.80;48.80;;;;;;4889558;28;98717;-69
2022/04/20 01:52:55;;;;;;;3.38;2.20;;;18.70;48.70;;;;;;4888703;28;99374;-69
2022/04/20 01:55:21;;;;;;;3.53;2.17;;;18.70;48.70;;;;;;4889480;28;99675;-69
2022/04/20 01:57:49;;;;;;;3.38;2.20;;;18.70;48.70;;;;;;4889846;28;99208;-69
2022/04/20 02:00:16;;;;;;;2.65;2.33;;;18.70;48.70;;;;;;4889584;28;98615;-69
2022/04/20 02:02:43;;;;;;;2.63;2.10;;;18.70;48.80;;;;;;4887802;28;101618;-69
2022/04/20 02:05:12;;;;;;;3.55;2.30;;;18.70;48.90;;;;;;4889036;28;101294;-68
2022/04/20 02:07:38;;;;;;;2.72;1.98;;;18.70;48.80;;;;;;4890228;28;98606;-68
2022/04/20 02:10:06;;;;;;;2.78;2.05;;;18.70;48.90;;;;;;4889447;28;99053;-69
2022/04/20 02:12:32;;;;;;;2.47;2.28;;;18.70;48.80;;;;;;4889095;28;101414;-69
2022/04/20 02:14:58;;;;;;;3.15;2.03;;;18.70;48.80;;;;;;4890587;28;105308;-69
2022/04/20 02:17:25;;;;;;;2.50;1.90;;;18.70;48.90;;;;;;4892685;28;99096;-69
2022/04/20 02:19:50;;;;;;;2.45;1.90;;;18.70;48.90;;;;;;4892787;28;98182;-69
2022/04/20 02:22:16;;;;;;;2.70;2.00;;;18.70;48.90;;;;;;4892216;28;100474;-69
2022/04/20 02:24:42;;;;;;;2.85;2.00;;;18.70;48.80;;;;;;4891228;28;99841;-69
2022/04/20 02:27:11;;;;;;;2.65;1.98;;;18.70;48.80;;;;;;4892811;28;99349;-68
2022/04/20 02:29:38;;;;;;;2.42;2.08;;;18.70;48.80;;;;;;4892227;28;99207;-69
2022/04/20 02:32:05;;;;;;;2.30;1.83;;;18.70;48.90;;;;;;4892322;28;101088;-69
2022/04/20 02:34:31;;;;;;;2.30;1.90;;;18.70;48.90;;;;;;4891388;28;99007;-69
2022/04/20 02:36:58;;;;;;;2.85;2.00;;;18.60;48.80;;;;;;4893254;28;98798;-69
2022/04/20 02:39:24;;;;;;;2.20;1.98;;;18.60;48.80;;;;;;4892484;28;98706;-69
2022/04/20 02:41:49;;;;;;;2.35;1.90;;;18.60;48.80;;;;;;4892983;28;99837;-69
2022/04/20 02:44:15;;;;;;;2.15;1.75;;;18.60;48.70;;;;;;4892273;28;99165;-70
2022/04/20 02:46:42;;;;;;;2.25;2.00;;;18.60;48.70;;;;;;4891804;28;98730;-70
2022/04/20 02:49:08;;;;;;;2.25;2.05;;;18.60;48.80;;;;;;4892256;28;98527;-70
2022/04/20 02:51:34;;;;;;;2.55;1.90;;;18.60;48.80;;;;;;4891423;28;102061;-70
2022/04/20 02:54:00;;;;;;;2.30;2.10;;;18.60;48.80;;;;;;4891418;28;107169;-69
2022/04/20 02:56:26;;;;;;;2.58;1.95;;;18.60;48.70;;;;;;4891273;28;101723;-69
2022/04/20 02:58:52;;;;;;;2.63;2.03;;;18.60;48.70;;;;;;4891475;28;98945;-70
2022/04/20 03:01:18;;;;;;;2.70;2.10;;;18.60;48.70;;;;;;4892370;28;99588;-70
2022/04/20 03:03:44;;;;;;;3.00;1.80;;;18.60;48.70;;;;;;4891087;28;100208;-70
2022/04/20 03:06:11;;;;;;;2.10;1.80;;;18.60;48.60;;;;;;4874975;28;98781;-69
2022/04/20 03:08:36;;;;;;;2.20;1.95;;;18.60;48.70;;;;;;4891751;28;98291;-70
2022/04/20 03:11:02;;;;;;;2.85;2.17;;;18.60;48.60;;;;;;4891590;28;109555;-69
2022/04/20 03:13:28;;;;;;;2.35;2.15;;;18.50;48.60;;;;;;4890587;28;106271;-69
2022/04/20 04:19:30;;;;;;;2.20;2.00;;;18.40;48.20;;;;;;5055815;23;101228;-70
2022/04/20 04:21:56;;;;;;;2.20;1.98;;;18.40;48.30;;;;;;4890554;28;99347;-70
2022/04/20 04:24:37;;;;;;;2.47;1.90;;;18.30;48.20;;;;;;4890263;28;99096;-70
2022/04/20 04:27:10;;;;;;;2.75;1.90;;;18.30;48.10;;;;;;4889991;28;98628;-69
2022/04/20 04:29:37;;;;;;;2.30;2.10;;;18.40;48.20;;;;;;4890351;28;100711;-69
2022/04/20 04:32:03;;;;;;;3.33;1.90;;;18.40;48.20;;;;;;4889663;28;102589;-70
2022/04/20 04:34:29;;;;;;;2.05;1.85;;;18.40;48.10;;;;;;4890059;28;98868;-69
2022/04/20 04:36:56;;;;;;;2.25;2.05;;;18.30;48.10;;;;;;4908438;28;99049;-69
2022/04/20 04:39:22;;;;;;;2.58;1.95;;;18.30;48.00;;;;;;4908948;28;100917;-70
2022/04/20 04:41:49;;;;;;;2.08;1.88;;;18.30;48.10;;;;;;4908310;28;100792;-70
2022/04/20 04:44:18;;;;;;;2.42;2.17;;;18.30;47.90;;;;;;4908188;28;99304;-69
2022/04/20 04:49:29;;;;;;;2.15;1.80;;;18.30;48.00;;;;;;4908813;28;99363;-69
2022/04/20 04:51:56;;;;;;;2.45;1.95;;;18.30;47.90;;;;;;4909371;28;98816;-69
2022/04/20 04:54:22;;;;;;;2.10;1.83;;;18.30;49.00;;;;;;4908505;28;99066;-69
2022/04/20 04:56:47;;;;;;;3.00;1.92;;;18.30;47.90;;;;;;4909054;28;97892;-69
2022/04/20 04:59:13;;;;;;;3.17;2.10;;;18.30;47.90;;;;;;4907170;28;108660;-69
2022/04/20 05:01:39;;;;;;;2.13;1.90;;;18.30;47.90;;;;;;4908414;28;100040;-69
2022/04/20 05:04:05;;;;;;;2.42;1.90;;;18.30;47.90;;;;;;4910002;28;99351;-69
2022/04/20 05:06:31;;;;;;;3.28;1.75;;;18.30;47.90;;;;;;4908757;28;98819;-70
2022/04/20 05:08:58;;;;;;;2.25;1.77;;;18.20;47.90;;;;;;4908387;28;99845;-69
2022/04/20 05:11:23;;;;;;;2.10;1.90;;;18.30;48.00;;;;;;4908217;28;99025;-70
2022/04/20 05:13:49;;;;;;;3.53;2.10;;;18.30;47.90;;;;;;4908253;28;99181;-69
2022/04/20 05:16:15;;;;;;;2.13;1.90;;;18.30;47.90;;;;;;4908960;28;98584;-69
2022/04/20 05:18:40;;;;;;;2.25;1.95;;;18.30;47.90;;;;;;4906884;28;100933;-69
2022/04/20 05:21:06;;;;;;;2.78;1.98;;;18.20;47.80;;;;;;4908563;28;100047;-69
2022/04/20 05:23:32;;;;;;;2.75;2.05;;;18.30;47.90;;;;;;4908121;28;99163;-69
2022/04/20 05:25:57;;;;;;;2.33;1.70;;;18.30;48.00;;;;;;4908551;28;99156;-69
2022/04/20 05:28:23;;;;;;;3.05;2.17;;;18.30;48.00;;;;;;4908236;28;101593;-69
2022/04/20 05:30:49;;;;;;;3.15;1.80;;;18.30;48.00;;;;;;4907494;28;111655;-69
2022/04/20 05:33:14;;;;;;;2.75;1.88;;;18.30;47.90;;;;;;4908943;28;99259;-69
2022/04/20 05:35:41;;;;;;;2.53;1.70;;;18.20;47.80;;;;;;4908096;28;99171;-69
2022/04/20 05:43:36;;;;;;;2.05;1.77;;;18.20;48.00;;;;;;4909122;28;98821;-71
2022/04/20 05:46:03;;;;;;;3.20;2.13;;;18.20;47.90;;;;;;4908649;28;98218;-70
2022/04/20 05:48:29;;;;;;;2.40;2.20;;;18.20;47.90;;;;;;4908633;28;100352;-73
2022/04/20 05:50:54;;;;;;;2.58;2.17;;;18.20;47.90;;;;;;4911538;28;100965;-70
2022/04/20 05:53:20;;;;;;;2.38;1.95;;;18.20;47.90;;;;;;4911185;28;99357;-71
2022/04/20 05:55:45;;;;;;;2.92;1.88;;;18.20;47.80;;;;;;4913400;28;98567;-65
2022/04/20 05:58:13;;;;;;;8.95;3.35;;;18.20;47.80;;;;;;4914578;28;100227;-70
2022/04/20 06:00:38;;;;;;;6.70;2.90;;;18.20;47.30;;;;;;4917158;28;98957;-70
2022/04/20 06:03:04;;;;;;;6.28;2.47;;;18.20;47.20;;;;;;4912165;28;100340;-70
2022/04/20 06:05:30;;;;;;;4.97;2.35;;;18.20;47.30;;;;;;4911021;28;98928;-71
2022/04/20 06:07:55;;;;;;;4.25;2.53;;;18.30;47.50;;;;;;4911137;28;102784;-70
2022/04/20 06:10:21;;;;;;;4.38;2.40;;;18.30;47.40;;;;;;4910903;28;100045;-70
2022/04/20 06:12:47;;;;;;;6.78;2.33;;;18.40;47.30;;;;;;4912034;28;98993;-71
2022/04/20 06:15:13;;;;;;;5.72;2.30;;;18.40;47.20;;;;;;4911319;28;98491;-70
2022/04/20 06:17:38;;;;;;;3.88;2.20;;;18.50;47.10;;;;;;4911616;28;99947;-70
2022/04/20 06:20:05;;;;;;;4.50;2.47;;;18.60;47.10;;;;;;4910287;28;100656;-71
2022/04/20 06:22:31;;;;;;;3.03;2.10;;;18.60;47.00;;;;;;4911049;28;98787;-70
2022/04/20 06:24:56;;;;;;;3.78;2.10;;;18.70;47.00;;;;;;4911922;28;98573;-70
2022/04/20 06:27:29;;;;;;;4.57;2.45;;;18.80;46.80;;;;;;4910145;28;108500;-70
2022/04/20 06:29:54;;;;;;;4.10;2.10;;;18.90;46.80;;;;;;4911001;28;99954;-70
2022/04/20 06:32:23;;;;;;;3.72;2.08;;;18.90;46.70;;;;;;4911139;28;99671;-71
2022/04/20 06:34:49;;;;;;;2.13;1.63;;;18.90;46.60;;;;;;4893644;28;97957;-70
2022/04/20 06:37:15;;;;;;;3.28;1.92;;;19.00;46.60;;;;;;4910143;28;100263;-70
2022/04/20 06:39:41;;;;;;;2.90;1.90;;;18.90;46.50;;;;;;4910689;28;99825;-70
2022/04/20 06:42:07;;;;;;;3.95;1.95;;;18.90;46.40;;;;;;4911042;28;99789;-69
2022/04/20 06:44:33;;;;;;;3.30;1.98;;;19.00;46.30;;;;;;4910431;28;98751;-70
2022/04/20 06:47:00;;;;;;;5.25;2.10;;;19.00;46.40;;;;;;4909827;28;100302;-70
2022/04/20 06:49:25;;;;;;;2.58;1.85;;;19.00;46.40;;;;;;4911259;28;98983;-70
2022/04/20 07:00:06;;;;;;;2.80;1.88;;;19.00;46.30;;;;;;4909556;28;98453;-70
2022/04/20 07:02:31;;;;;;;3.17;1.75;;;19.00;46.40;;;;;;4911024;28;98984;-70
2022/04/20 07:04:57;;;;;;;2.65;1.95;;;19.00;46.40;;;;;;4911285;28;98525;-70
2022/04/20 07:07:23;;;;;;;2.40;1.70;;;19.00;46.40;;;;;;4909116;28;100930;-70
2022/04/20 07:09:48;;;;;;;3.67;1.77;;;19.00;46.30;;;;;;4909664;28;100527;-69
2022/04/20 07:12:14;;;;;;;3.08;1.70;;;19.00;46.30;;;;;;4909744;28;98630;-71
2022/04/20 07:14:41;;;;;;;2.60;1.90;;;19.00;46.40;;;;;;4910995;28;99107;-70
2022/04/20 07:17:07;;;;;;;2.97;1.67;;;19.00;46.40;;;;;;4910785;28;110546;-70
2022/04/20 07:19:34;;;;;;;3.47;1.63;;;19.00;46.40;;;;;;4909518;28;101391;-71
2022/04/20 07:22:00;;;;;;;2.47;1.83;;;19.00;46.40;;;;;;4909991;28;98748;-70
2022/04/20 07:24:26;;;;;;;2.03;1.73;;;19.00;46.40;;;;;;4910309;28;97907;-70
2022/04/20 07:26:51;;;;;;;3.35;1.75;;;18.90;46.40;;;;;;4908649;28;98772;-71
2022/04/20 07:29:17;;;;;;;2.42;1.85;;;18.90;46.40;;;;;;4909274;28;109840;-71
2022/04/20 07:31:42;;;;;;;2.65;1.85;;;19.00;46.50;;;;;;4909020;28;99890;-71
2022/04/20 07:34:08;;;;;;;3.70;1.60;;;19.00;46.60;;;;;;4910098;28;99266;-70
2022/04/20 07:36:33;;;;;;;2.97;1.70;;;18.90;46.60;;;;;;4908417;28;100119;-70
2022/04/20 07:38:59;;;;;;;3.67;2.05;;;19.00;46.50;;;;;;4909676;28;99444;-71
2022/04/20 07:41:30;;;;;;;3.22;1.58;;;18.90;46.60;;;;;;4910701;28;98564;-70
2022/04/20 07:43:56;;;;;;;3.13;1.75;;;18.90;46.60;;;;;;4913844;28;98783;-69
2022/04/20 07:46:22;;;;;;;2.90;1.70;;;18.90;46.70;;;;;;4911091;28;100236;-69
2022/04/20 07:48:48;;;;;;;2.50;1.73;;;18.90;46.60;;;;;;4910496;28;100522;-68
2022/04/20 07:51:14;;;;;;;1.90;1.50;;;18.90;46.70;;;;;;4910505;28;99090;-70
2022/04/20 07:53:40;;;;;;;2.22;1.60;;;18.90;46.70;;;;;;4892476;28;98711;-70
2022/04/20 07:56:06;;;;;;;3.25;1.60;;;18.90;46.80;;;;;;4908769;28;101263;-69
2022/04/20 07:58:31;;;;;;;3.65;1.75;;;18.90;46.90;;;;;;4908343;28;107679;-73
2022/04/20 08:00:57;;;;;;;2.67;1.70;;;18.80;46.80;;;;;;4909990;28;98939;-70
2022/04/20 08:03:24;;;;;;;2.63;2.10;;;18.90;46.90;;;;;;4908879;28;99028;-69
2022/04/20 08:05:53;;;;;;;2.75;1.70;;;18.90;47.90;;;;;;4909636;28;100748;-69
2022/04/20 08:08:20;;;;;;;2.95;1.77;;;18.90;46.90;;;;;;4910326;28;100161;-68
2022/04/20 08:10:46;;;;;;;2.15;1.60;;;18.80;46.90;;;;;;4910678;28;98604;-69
2022/04/20 08:15:56;;;;;;;2.17;1.60;;;18.80;46.90;;;;;;4910108;28;98724;-69
2022/04/20 08:18:22;;;;;;;2.10;1.70;;;18.80;47.00;;;;;;4909086;28;100114;-70
2022/04/20 08:20:48;;;;;;;2.45;1.50;;;18.80;47.00;;;;;;4909342;28;99385;-69
2022/04/20 08:23:14;;;;;;;2.28;1.52;;;18.80;47.00;;;;;;4909511;28;98674;-69
2022/04/20 08:25:40;;;;;;;1.77;1.55;;;18.80;47.10;;;;;;4910313;28;99013;-69
2022/04/20 08:28:09;;;;;;;2.65;1.65;;;18.80;47.10;;;;;;4910164;28;100139;-69
2022/04/20 08:30:36;;;;;;;3.25;1.80;;;18.80;47.10;;;;;;4910687;28;99712;-70
2022/04/20 08:33:07;;;;;;;2.78;1.50;;;18.80;47.10;;;;;;4910410;28;99191;-69
2022/04/20 08:35:34;;;;;;;4.80;1.75;;;18.80;48.30;;;;;;4909696;28;100857;-70
2022/04/20 08:38:00;;;;;;;2.78;1.60;;;18.80;47.30;;;;;;4910018;28;99853;-69
2022/04/20 08:40:26;;;;;;;3.05;1.70;;;18.80;47.30;;;;;;4908912;28;99212;-70
2022/04/20 08:42:54;;;;;;;2.55;1.80;;;18.70;47.20;;;;;;4909859;28;98635;-69
2022/04/20 08:45:20;;;;;;;1.80;1.50;;;18.80;47.30;;;;;;4909166;28;101261;-70
2022/04/20 08:47:49;;;;;;;2.22;1.73;;;18.80;47.30;;;;;;4909439;28;99626;-70
2022/04/20 08:50:15;;;;;;;2.97;1.60;;;18.80;47.30;;;;;;4909485;28;99132;-70
2022/04/20 08:52:42;;;;;;;2.85;1.60;;;18.80;47.30;;;;;;4909607;28;98683;-70
2022/04/20 08:55:16;;;;;;;2.15;1.50;;;18.80;47.30;;;;;;4908509;28;100720;-69
2022/04/20 08:57:44;;;;;;;2.25;1.70;;;18.80;47.30;;;;;;4908384;28;99886;-70
2022/04/20 09:00:22;;;;;;;2.20;1.48;;;18.70;47.30;;;;;;4908852;28;98948;-70
2022/04/20 09:02:54;;;;;;;2.38;1.60;;;18.70;47.30;;;;;;4909336;28;98142;-69
2022/04/20 09:05:20;;;;;;;2.17;1.55;;;18.70;48.30;;;;;;4908337;28;100589;-71
2022/04/20 09:07:46;;;;;;;1.58;1.30;;;18.70;47.40;;;;;;4908221;28;100475;-70
2022/04/20 09:10:12;;;;;;;2.03;1.45;;;18.80;47.40;;;;;;4908681;28;100944;-69
2022/04/20 09:12:43;;;;;;;1.85;1.50;;;18.70;47.30;;;;;;4908881;28;98656;-69
2022/04/20 09:15:09;;;;;;;2.10;1.50;;;18.70;47.20;;;;;;4908340;28;100207;-69
2022/04/20 09:17:47;;;;;;;2.67;1.60;;;18.80;47.30;;;;;;4908723;28;100499;-69
2022/04/20 09:20:17;;;;;;;2.67;1.45;;;18.70;47.20;;;;;;4909215;28;98697;-69
2022/04/20 09:23:05;;;;;;;2.58;1.50;;;18.70;47.30;;;;;;4911039;28;98708;-69
2022/04/20 09:25:33;;;;;;;2.58;1.30;;;18.80;47.30;;;;;;4917189;28;100269;-69
2022/04/20 09:27:59;;;;;;;1.65;1.50;;;18.80;47.20;;;;;;4915052;28;99915;-70
2022/04/20 09:30:24;;;;;;;3.58;1.38;;;18.80;47.10;;;;;;4912812;28;98925;-69
2022/04/20 09:32:50;;;;;;;2.80;1.83;;;18.70;47.10;;;;;;4912759;28;98595;-69
2022/04/20 09:35:20;;;;;;;4.03;2.38;;;18.70;46.10;;;;;;4912954;28;111769;-69
2022/04/20 09:38:03;;;;;;;5.03;2.33;;;18.70;44.70;;;;;;4912172;28;101555;-70
2022/04/20 09:40:33;;;;;;;4.20;2.80;;;18.70;43.10;;;;;;4912771;28;98864;-69
2022/04/20 09:43:02;;;;;;;4.97;2.70;;;18.70;42.70;;;;;;4913236;28;99030;-70
2022/04/20 09:45:28;;;;;;;3.75;2.03;;;18.70;42.30;;;;;;4912115;28;99854;-69
2022/04/20 09:50:39;;;;;;;6.07;1.83;;;18.70;42.20;;;;;;4912589;28;99034;-70
2022/04/20 09:53:10;;;;;;;3.53;2.00;;;18.70;42.00;;;;;;4912122;28;97927;-70
2022/04/20 09:55:37;;;;;;;3.35;2.00;;;18.70;41.80;;;;;;4910454;28;101057;-69
2022/04/20 09:58:10;;;;;;;4.03;1.80;;;18.70;41.80;;;;;;4911676;28;99989;-70
2022/04/20 10:00:44;;;;;;;2.53;1.77;;;18.80;41.90;;;;;;4912429;28;99793;-70
2022/04/20 10:03:10;;;;;;;4.00;1.80;;;18.80;41.90;;;;;;4912450;28;98982;-70
2022/04/20 10:05:37;;;;;;;4.75;1.65;;;18.80;41.90;;;;;;4910585;28;99450;-70
2022/04/20 10:08:03;;;;;;;2.78;1.73;;;18.80;42.00;;;;;;4911300;28;100061;-69
2022/04/20 10:10:30;;;;;;;2.70;1.80;;;18.90;43.10;;;;;;4911730;28;98896;-69
2022/04/20 10:12:56;;;;;;;2.95;1.63;;;18.90;42.10;;;;;;4912643;28;99487;-71
2022/04/20 10:18:19;;;;;;;4.45;1.70;;;18.90;42.20;;;;;;4911702;28;98657;-72
2022/04/20 10:20:50;;;;;;;3.28;1.70;;;19.00;42.30;;;;;;4910899;28;98699;-70
2022/04/20 10:23:19;;;;;;;2.72;1.60;;;18.90;42.30;;;;;;4911832;28;98805;-70
2022/04/20 10:25:45;;;;;;;1.98;1.50;;;19.00;42.40;;;;;;4910778;28;100954;-70
2022/04/20 10:28:19;;;;;;;2.35;1.50;;;19.00;42.50;;;;;;4911225;28;101185;-69
2022/04/20 10:31:13;;;;;;;3.80;1.60;;;19.00;42.60;;;;;;4910892;28;98630;-69
2022/04/20 10:33:42;;;;;;;2.97;1.50;;;19.00;42.70;;;;;;4907307;28;98909;-69
2022/04/20 10:36:12;;;;;;;2.95;1.58;;;19.10;42.90;;;;;;4909774;28;100199;-70
2022/04/20 10:38:38;;;;;;;3.92;1.58;;;19.10;42.80;;;;;;4910689;28;99911;-70
2022/04/20 10:41:20;;;;;;;2.28;1.58;;;19.10;42.90;;;;;;4911681;28;98901;-70
2022/04/20 10:44:02;;;;;;;1.58;1.42;;;19.10;43.00;;;;;;4911731;28;98050;-69
2022/04/20 10:46:28;;;;;;;2.55;1.48;;;19.10;43.00;;;;;;4910742;28;100345;-68
2022/04/20 10:48:58;;;;;;;2.85;1.27;;;19.10;43.20;;;;;;4910461;28;99922;-70
2022/04/20 10:51:43;;;;;;;4.47;1.33;;;19.10;43.30;;;;;;4910243;28;99316;-70
2022/04/20 10:54:17;;;;;;;3.20;1.88;;;19.20;43.30;;;;;;4910414;28;98840;-71
2022/04/20 10:57:09;;;;;;;4.35;2.63;;;19.20;44.00;;;;;;4910639;28;100184;-70
2022/04/20 10:59:34;;;;;;;8.60;2.60;;;19.20;44.80;;;;;;4909671;28;99952;-70
2022/04/20 11:02:03;;;;;;;4.82;2.60;;;19.10;44.80;;;;;;4911490;28;99078;-72
2022/04/20 11:04:32;;;;;;;4.78;2.72;;;19.10;44.50;;;;;;4911851;28;99117;-70
2022/04/20 11:06:58;;;;;;;3.83;2.45;;;19.20;44.40;;;;;;4912513;28;100231;-71
2022/04/20 11:09:42;;;;;;;5.80;2.92;;;19.20;44.30;;;;;;4913173;28;99289;-71
2022/04/20 11:21:06;;;;;;;2.97;2.28;;;19.20;41.70;;;;;;4909981;28;99164;-70
2022/04/20 11:24:11;;;;;;;3.42;2.17;;;19.20;41.40;;;;;;4910004;28;99062;-71
2022/04/20 11:26:41;;;;;;;3.00;2.33;;;19.20;40.90;;;;;;4910736;28;99276;-71
2022/04/20 11:29:09;;;;;;;3.88;2.30;;;19.20;40.70;;;;;;4909950;28;100494;-71
2022/04/20 11:31:42;;;;;;;3.53;2.15;;;19.20;40.40;;;;;;4910725;28;99838;-71
2022/04/20 11:34:08;;;;;;;3.87;2.40;;;19.20;40.30;;;;;;4910385;28;98950;-71
2022/04/20 11:36:37;;;;;;;2.88;2.10;;;19.20;40.40;;;;;;4910939;28;98072;-71
2022/04/20 11:39:03;;;;;;;3.42;1.98;;;19.20;40.50;;;;;;4910244;28;99647;-70
2022/04/20 11:41:28;;;;;;;3.22;1.77;;;19.20;40.50;;;;;;4909727;28;99144;-71
2022/04/20 11:43:54;;;;;;;4.03;1.75;;;19.20;40.60;;;;;;4908902;28;99335;-70
2022/04/20 11:46:20;;;;;;;2.08;1.70;;;19.20;40.70;;;;;;4909909;28;99163;-71
2022/04/20 11:49:09;;;;;;;2.58;1.70;;;19.20;40.80;;;;;;4911036;28;100276;-70
2022/04/20 11:51:35;;;;;;;2.47;1.83;;;19.20;40.80;;;;;;4909788;28;99576;-72
2022/04/20 11:54:00;;;;;;;1.83;1.40;;;19.20;41.10;;;;;;4892296;28;98853;-71
2022/04/20 11:56:46;;;;;;;3.20;1.80;;;19.20;41.10;;;;;;4909428;28;99474;-70
2022/04/20 11:59:12;;;;;;;2.63;1.42;;;19.20;41.20;;;;;;4909536;28;100474;-70
2022/04/20 12:01:39;;;;;;;2.33;1.65;;;19.20;41.30;;;;;;4910230;28;98736;-71
2022/04/20 12:04:16;;;;;;;1.65;1.40;;;19.20;41.40;;;;;;4910257;28;99045;-71
2022/04/20 12:06:51;;;;;;;2.58;1.90;;;19.30;41.50;;;;;;4909873;28;99056;-71
2022/04/20 12:09:31;;;;;;;1.88;1.60;;;19.20;41.70;;;;;;4910377;28;101687;-72
2022/04/20 12:11:58;;;;;;;4.47;1.60;;;19.20;41.80;;;;;;4909777;28;99547;-71
2022/04/20 12:14:32;;;;;;;3.22;1.50;;;19.30;42.00;;;;;;4909552;28;99160;-72
2022/04/20 12:17:01;;;;;;;1.73;1.35;;;19.30;42.10;;;;;;4909915;28;98691;-71
2022/04/20 12:19:28;;;;;;;2.50;1.45;;;19.30;42.20;;;;;;4909406;28;99492;-70
2022/04/20 12:21:54;;;;;;;1.90;1.30;;;19.30;42.30;;;;;;4908881;28;99848;-71
2022/04/20 12:24:25;;;;;;;2.40;1.50;;;19.20;42.40;;;;;;4909834;28;98959;-70
2022/04/20 12:26:52;;;;;;;2.85;1.20;;;19.30;42.50;;;;;;4910079;28;97957;-71
2022/04/20 12:29:23;;;;;;;1.52;1.20;;;19.30;42.50;;;;;;4909885;28;99194;-71
2022/04/20 12:31:51;;;;;;;2.97;1.38;;;19.30;42.60;;;;;;4892058;28;101707;-71
2022/04/20 12:34:18;;;;;;;1.38;1.20;;;19.30;42.80;;;;;;4910004;28;100013;-71
2022/04/20 12:36:51;;;;;;;2.75;1.30;;;19.30;42.80;;;;;;4909333;28;98666;-72
2022/04/20 12:39:24;;;;;;;;;;;19.30;42.80;;;;;;4910427;28;100225;-71
2022/04/20 12:41:54;;;;;;;2.55;1.30;;;19.30;43.00;;;;;;4910439;28;99463;-71
2022/04/20 12:44:47;;;;;;;2.13;1.48;;;19.20;42.90;;;;;;4910243;28;98715;-73
2022/04/20 12:47:16;;;;;;;1.65;1.30;;;19.30;43.00;;;;;;4909623;28;99009;-71
2022/04/20 12:49:51;;;;;;;1.83;1.20;;;19.30;43.10;;;;;;4912013;28;100168;-70
2022/04/20 12:52:22;;;;;;;1.60;1.10;;;19.30;43.20;;;;;;4913597;28;98463;-71
2022/04/20 12:55:13;;;;;;;2.47;1.10;;;19.30;43.20;;;;;;4910824;28;98610;-70
2022/04/20 13:03:35;;;;;;;1.67;1.10;;;19.30;44.50;;;;;;4907935;28;99277;-71
2022/04/20 13:06:01;;;;;;;1.45;1.05;;;19.30;43.50;;;;;;4908575;28;99105;-70
2022/04/20 13:08:27;;;;;;;1.35;1.23;;;19.30;43.60;;;;;;4908507;28;99040;-72
2022/04/20 13:10:52;;;;;;;2.03;1.10;;;19.30;43.70;;;;;;4908432;28;99214;-71
2022/04/20 13:13:26;;;;;;;2.13;1.20;;;19.30;43.60;;;;;;4908461;28;99814;-73
2022/04/20 13:15:52;;;;;;;2.03;1.10;;;19.40;43.60;;;;;;4909554;28;98989;-72
2022/04/20 13:18:18;;;;;;;1.45;1.20;;;19.40;43.70;;;;;;4909640;28;97830;-71
2022/04/20 13:20:45;;;;;;;1.30;1.00;;;19.40;43.80;;;;;;4908533;28;100169;-71
2022/04/20 13:23:11;;;;;;;1.42;1.10;;;19.40;43.80;;;;;;4908568;28;100127;-71
2022/04/20 13:28:21;;;;;;;2.47;0.98;;;19.40;43.80;;;;;;4908181;28;99284;-71
2022/04/20 13:30:47;;;;;;;3.22;1.40;;;19.40;43.80;;;;;;4908239;28;100085;-71
2022/04/20 13:33:15;;;;;;;2.58;1.13;;;19.40;43.80;;;;;;4907702;28;99891;-70
2022/04/20 13:35:42;;;;;;;1.42;1.00;;;19.40;43.80;;;;;;4908401;28;98692;-71
2022/04/20 13:38:11;;;;;;;1.65;1.00;;;19.40;43.80;;;;;;4891186;28;99288;-71
2022/04/20 13:40:38;;;;;;;1.85;1.23;;;19.40;43.90;;;;;;4908336;28;100412;-71
2022/04/20 13:43:05;;;;;;;1.63;0.98;;;19.40;43.90;;;;;;4908696;28;99895;-71
2022/04/20 13:45:31;;;;;;;1.17;1.00;;;19.40;44.00;;;;;;4908931;28;98577;-70
2022/04/20 13:47:56;;;;;;;2.58;1.10;;;19.40;44.00;;;;;;4909330;28;98963;-71
2022/04/20 13:50:22;;;;;;;1.90;1.20;;;19.40;44.00;;;;;;4906851;28;107602;-71
2022/04/20 13:52:49;;;;;;;1.70;1.00;;;19.40;44.10;;;;;;4907715;28;100729;-71
2022/04/20 13:55:15;;;;;;;1.00;0.90;;;19.50;44.10;;;;;;4908216;28;99155;-71
2022/04/20 13:57:41;;;;;;;1.10;0.95;;;19.40;44.10;;;;;;4907981;28;98622;-73
2022/04/20 14:00:08;;;;;;;1.38;1.00;;;19.40;44.20;;;;;;4908003;28;100463;-70
2022/04/20 14:02:35;;;;;;;1.42;1.08;;;19.50;44.40;;;;;;4907675;28;100984;-70
2022/04/20 14:05:01;;;;;;;1.00;0.90;;;19.40;44.50;;;;;;4908128;28;98670;-71
2022/04/20 14:07:27;;;;;;;1.73;1.30;;;19.50;44.50;;;;;;4908065;28;98468;-70
2022/04/20 14:09:53;;;;;;;1.73;1.17;;;19.40;44.50;;;;;;4909500;28;100312;-70
2022/04/20 14:12:20;;;;;;;1.50;1.30;;;19.50;44.60;;;;;;4911319;28;99218;-71
2022/04/20 14:14:45;;;;;;;1.20;1.10;;;19.50;44.50;;;;;;4911262;28;99835;-70
2022/04/20 14:17:15;;;;;;;1.65;1.00;;;19.50;44.60;;;;;;4911704;28;98810;-71
2022/04/20 14:19:43;;;;;;;1.20;1.00;;;19.50;44.60;;;;;;4901170;28;100819;-70
2022/04/20 14:22:10;;;;;;;1.02;0.93;;;19.50;44.60;;;;;;4891410;28;99067;-70
2022/04/20 14:24:36;;;;;;;1.17;0.98;;;19.50;44.60;;;;;;4891876;28;99076;-71
2022/04/20 14:32:31;;;;;;;1.45;1.05;;;19.50;44.60;;;;;;4896197;28;98471;-72
2022/04/20 14:34:56;;;;;;;1.63;1.00;;;19.50;44.60;;;;;;4897475;28;99103;-71
2022/04/20 14:37:23;;;;;;;1.45;1.10;;;19.50;44.60;;;;;;4893103;28;99073;-71